Terminal Aerodrome Forecast
Issued by NWS

Home | Current Version | Previous Version | Text Only | Print | Product List | Glossary On
Versions: 1 2 3 4 5 6 7 8 9 10 11 12 13 14 15 16 17
000
FTUS45 KRIW 021835 AAA
TAFCPR
TAF AMD
KCPR 021835Z 0219/0318 27012G20KT P6SM BKN250
     FM022000 31010KT P6SM SCT080 BKN250
     FM030000 36008KT P6SM SCT080 BKN250
     FM030900 25007KT P6SM SKC=

USA.gov is the U.S. government's official web portal to all federal, state and local government web resources and services.